createdAt,value
2023-08-26T00:02:10.067Z,17.70
2023-08-26T00:04:37.004Z,17.50
2023-08-26T00:07:04.036Z,17.50
2023-08-26T00:09:31.044Z,17.40
2023-08-26T00:11:57.962Z,17.30
2023-08-26T00:14:24.854Z,17.20
2023-08-26T00:16:52.323Z,17.10
2023-08-26T00:19:21.696Z,17.20
2023-08-26T00:21:54.858Z,17.10
2023-08-26T00:24:21.902Z,17.10
2023-08-26T00:26:48.999Z,17.00
2023-08-26T00:29:15.955Z,17.00
2023-08-26T00:31:42.836Z,17.00
2023-08-26T00:34:09.806Z,17.00
2023-08-26T00:36:36.667Z,16.90
2023-08-26T00:39:03.694Z,16.90
2023-08-26T00:41:30.567Z,16.90
2023-08-26T00:43:57.454Z,16.90
2023-08-26T00:46:24.825Z,16.90
2023-08-26T00:48:51.959Z,16.80
2023-08-26T00:51:20.566Z,16.70
2023-08-26T00:53:49.128Z,16.60
2023-08-26T00:56:16.710Z,16.60
2023-08-26T00:58:44.303Z,16.50
2023-08-26T01:01:11.468Z,16.50
2023-08-26T01:03:39.520Z,16.50
2023-08-26T01:06:06.709Z,16.50
2023-08-26T01:08:34.162Z,16.40
2023-08-26T01:11:12.642Z,16.40
2023-08-26T01:14:27.580Z,16.40
2023-08-26T01:16:54.657Z,16.40
2023-08-26T01:19:42.031Z,16.30
2023-08-26T01:22:10.609Z,16.30
2023-08-26T01:24:40.977Z,16.20
2023-08-26T01:27:08.759Z,16.10
2023-08-26T01:29:36.488Z,16.10
2023-08-26T01:32:09.516Z,16.00
2023-08-26T01:34:38.777Z,16.00
2023-08-26T01:37:08.354Z,16.00
2023-08-26T01:39:35.734Z,15.90
2023-08-26T01:42:03.624Z,15.80
2023-08-26T01:44:32.055Z,15.70
2023-08-26T01:46:58.940Z,15.60
2023-08-26T01:49:25.791Z,15.70
2023-08-26T01:51:52.799Z,15.60
2023-08-26T01:54:19.755Z,15.50
2023-08-26T01:56:46.609Z,15.50
2023-08-26T01:59:13.511Z,15.40
2023-08-26T02:01:40.417Z,15.40
2023-08-26T02:04:07.269Z,15.40
2023-08-26T02:06:34.173Z,15.40
2023-08-26T02:09:01.038Z,15.30
2023-08-26T02:11:27.993Z,15.30
2023-08-26T02:13:54.895Z,15.30
2023-08-26T02:16:21.776Z,15.40
2023-08-26T02:18:48.778Z,15.40
2023-08-26T02:21:15.827Z,15.50
2023-08-26T02:23:42.690Z,15.50
2023-08-26T02:26:09.633Z,15.60
2023-08-26T02:28:36.530Z,15.70
2023-08-26T02:31:04.207Z,15.70
2023-08-26T02:33:31.319Z,15.90
2023-08-26T02:35:58.244Z,15.90
2023-08-26T02:38:25.884Z,15.80
2023-08-26T02:40:56.261Z,15.70
2023-08-26T02:43:23.416Z,15.90
2023-08-26T02:45:54.666Z,15.80
2023-08-26T02:48:22.844Z,15.90
2023-08-26T02:51:01.041Z,16.00
2023-08-26T02:53:29.176Z,16.00
2023-08-26T02:55:57.185Z,16.10
2023-08-26T02:58:24.736Z,16.10
2023-08-26T03:00:52.074Z,16.20
2023-08-26T03:03:19.383Z,15.90
2023-08-26T03:05:46.574Z,15.80
2023-08-26T03:08:13.586Z,15.80
2023-08-26T03:10:40.658Z,15.80
2023-08-26T03:13:08.219Z,15.70
2023-08-26T03:15:35.224Z,15.60
2023-08-26T03:18:02.241Z,15.60
2023-08-26T03:20:29.152Z,15.60
2023-08-26T03:22:56.371Z,15.70
2023-08-26T03:25:23.230Z,15.70
2023-08-26T03:27:50.116Z,15.70
2023-08-26T03:30:17.030Z,15.70
2023-08-26T03:32:43.943Z,15.70
2023-08-26T03:35:10.932Z,15.90
2023-08-26T03:37:37.889Z,16.10
2023-08-26T03:40:08.807Z,16.00
2023-08-26T03:42:35.740Z,16.00
2023-08-26T03:45:03.385Z,16.00
2023-08-26T03:47:30.308Z,16.00
2023-08-26T03:49:57.512Z,16.00
2023-08-26T03:52:24.492Z,16.20
2023-08-26T03:54:51.393Z,16.50
2023-08-26T03:57:18.321Z,16.80
2023-08-26T03:59:45.276Z,17.10
2023-08-26T04:02:12.178Z,17.40
2023-08-26T04:04:38.995Z,17.60
2023-08-26T04:07:05.869Z,17.90
2023-08-26T04:09:32.758Z,17.90
2023-08-26T04:11:59.703Z,18.00
2023-08-26T04:14:26.586Z,17.90
2023-08-26T04:16:53.519Z,18.00
2023-08-26T04:19:20.435Z,17.90
2023-08-26T04:21:50.373Z,17.90
2023-08-26T04:24:17.215Z,18.00
2023-08-26T04:26:44.104Z,18.00
2023-08-26T04:29:11.102Z,17.80
2023-08-26T04:31:38.326Z,17.80
2023-08-26T04:34:05.331Z,17.80
2023-08-26T04:36:32.218Z,17.80
2023-08-26T04:38:59.161Z,17.80
2023-08-26T04:41:26.138Z,17.70
2023-08-26T04:43:54.353Z,17.30
2023-08-26T04:46:23.993Z,17.10
2023-08-26T04:48:52.026Z,16.80
2023-08-26T04:51:18.942Z,16.70
2023-08-26T04:53:45.900Z,16.70
2023-08-26T04:56:12.784Z,16.90
2023-08-26T04:58:39.754Z,16.90
2023-08-26T05:01:06.822Z,16.90
2023-08-26T05:03:33.900Z,16.80
2023-08-26T05:06:00.861Z,16.60
2023-08-26T05:08:27.753Z,16.60
2023-08-26T05:10:54.599Z,16.50
2023-08-26T05:13:22.109Z,16.50
2023-08-26T05:15:48.988Z,16.60
2023-08-26T05:18:20.109Z,16.70
2023-08-26T05:20:50.212Z,16.70
2023-08-26T05:23:17.195Z,16.60
2023-08-26T05:25:47.436Z,16.50
2023-08-26T05:28:17.991Z,16.60
2023-08-26T05:30:45.372Z,16.70
2023-08-26T05:33:12.251Z,16.60
2023-08-26T05:35:39.096Z,16.30
2023-08-26T05:38:06.027Z,16.40
2023-08-26T05:40:33.803Z,16.40
2023-08-26T05:43:00.740Z,16.30
2023-08-26T05:45:27.964Z,16.20
2023-08-26T05:47:56.217Z,16.30
2023-08-26T05:50:23.649Z,16.30
2023-08-26T05:52:50.781Z,16.10
2023-08-26T05:55:17.838Z,16.20
2023-08-26T05:57:44.801Z,16.30
2023-08-26T06:00:12.496Z,16.30
2023-08-26T06:02:39.411Z,16.20
2023-08-26T06:05:06.678Z,16.30
2023-08-26T06:07:33.555Z,16.40
2023-08-26T06:10:00.472Z,16.30
2023-08-26T06:12:27.365Z,16.00
2023-08-26T06:14:54.269Z,16.00
2023-08-26T06:17:21.183Z,15.90
2023-08-26T06:19:48.413Z,15.80
2023-08-26T06:22:15.333Z,15.80
2023-08-26T06:24:42.238Z,15.80
2023-08-26T06:27:09.124Z,16.00
2023-08-26T06:29:36.002Z,16.00
2023-08-26T06:32:03.180Z,16.10
2023-08-26T06:34:30.077Z,16.10
2023-08-26T06:36:56.940Z,16.10
2023-08-26T06:39:23.889Z,16.20
2023-08-26T06:41:50.726Z,16.00
2023-08-26T06:44:17.590Z,16.20
2023-08-26T06:46:44.528Z,16.20
2023-08-26T06:49:11.378Z,16.10
2023-08-26T06:51:38.239Z,16.10
2023-08-26T06:54:05.377Z,15.90
2023-08-26T06:56:32.291Z,15.90
2023-08-26T06:58:59.588Z,15.90
2023-08-26T07:01:26.598Z,16.00
2023-08-26T07:03:54.539Z,16.10
2023-08-26T07:06:22.969Z,16.10
2023-08-26T07:08:49.850Z,15.90
2023-08-26T07:11:16.831Z,15.80
2023-08-26T07:13:43.686Z,15.90
2023-08-26T07:16:10.697Z,15.80
2023-08-26T07:18:37.652Z,15.70
2023-08-26T07:21:04.583Z,15.50
2023-08-26T07:23:31.637Z,15.60
2023-08-26T07:25:59.075Z,15.60
2023-08-26T07:28:26.276Z,15.90
2023-08-26T07:30:54.186Z,16.10
2023-08-26T07:33:21.174Z,16.00
2023-08-26T07:35:49.918Z,16.10
2023-08-26T07:38:16.751Z,16.10
2023-08-26T07:40:43.665Z,16.30
2023-08-26T07:43:10.521Z,16.50
2023-08-26T07:45:37.409Z,16.60
2023-08-26T07:50:34.774Z,16.40
2023-08-26T07:53:01.613Z,16.70
2023-08-26T07:55:28.585Z,16.70
2023-08-26T07:57:55.438Z,16.70
2023-08-26T08:00:22.409Z,16.80
2023-08-26T08:02:49.468Z,16.50
2023-08-26T08:05:16.497Z,16.30
2023-08-26T08:07:43.552Z,16.40
2023-08-26T08:10:10.716Z,16.60
2023-08-26T08:12:37.646Z,16.70
2023-08-26T08:15:05.250Z,16.40
2023-08-26T08:17:32.916Z,16.50
2023-08-26T08:20:00.143Z,16.80
2023-08-26T08:22:39.003Z,16.80
2023-08-26T08:25:06.766Z,16.80
2023-08-26T08:27:33.801Z,16.70
2023-08-26T08:30:01.209Z,16.70
2023-08-26T08:32:28.948Z,17.20
2023-08-26T08:34:56.182Z,17.30
2023-08-26T08:37:23.258Z,17.10
2023-08-26T08:39:50.128Z,17.40
2023-08-26T08:42:18.140Z,17.60
2023-08-26T08:44:47.901Z,17.20
2023-08-26T08:47:15.189Z,17.30
2023-08-26T08:49:43.737Z,17.40
2023-08-26T08:52:12.243Z,17.20
2023-08-26T08:54:39.087Z,17.10
2023-08-26T08:57:06.143Z,17.30
2023-08-26T08:59:36.039Z,17.40
2023-08-26T09:02:04.983Z,17.40
2023-08-26T09:04:32.251Z,17.40
2023-08-26T09:07:00.270Z,17.40
2023-08-26T09:09:33.653Z,17.40
2023-08-26T09:12:02.721Z,17.70
2023-08-26T09:14:29.734Z,18.00
2023-08-26T09:16:57.582Z,18.00
2023-08-26T09:19:24.525Z,17.70
2023-08-26T09:21:51.410Z,17.70
2023-08-26T09:24:19.097Z,17.70
2023-08-26T09:27:02.350Z,17.90
2023-08-26T09:29:31.985Z,17.90
2023-08-26T09:31:59.576Z,18.10
2023-08-26T09:34:30.066Z,18.40
2023-08-26T09:36:57.770Z,18.60
2023-08-26T09:39:24.749Z,18.90
2023-08-26T09:41:51.986Z,19.10
2023-08-26T09:44:19.334Z,19.50
2023-08-26T09:46:48.016Z,19.70
2023-08-26T09:49:15.921Z,19.10
2023-08-26T09:51:51.668Z,19.10
2023-08-26T09:54:20.029Z,18.90
2023-08-26T09:56:48.062Z,18.70
2023-08-26T09:59:15.253Z,18.80
2023-08-26T10:01:43.775Z,19.10
2023-08-26T10:04:14.123Z,19.40
2023-08-26T10:06:48.234Z,19.60
2023-08-26T10:09:25.897Z,19.60
2023-08-26T10:11:55.695Z,19.70
2023-08-26T10:14:25.551Z,20.00
2023-08-26T10:16:57.453Z,20.30
2023-08-26T10:19:25.562Z,20.30
2023-08-26T10:21:54.646Z,20.40
2023-08-26T10:24:21.819Z,20.50
2023-08-26T10:26:49.393Z,20.40
2023-08-26T10:29:17.011Z,20.60
2023-08-26T10:31:47.132Z,20.60
2023-08-26T10:34:15.920Z,20.60
2023-08-26T10:36:47.707Z,20.40
2023-08-26T10:39:20.197Z,20.60
2023-08-26T10:42:10.300Z,20.70
2023-08-26T10:44:42.391Z,21.00
2023-08-26T10:47:09.684Z,21.40
2023-08-26T10:49:38.030Z,21.70
2023-08-26T10:52:17.836Z,22.00
2023-08-26T10:54:45.104Z,22.50
2023-08-26T10:57:12.366Z,22.70
2023-08-26T10:59:42.036Z,22.60
2023-08-26T11:02:10.751Z,22.10
2023-08-26T11:04:43.926Z,22.00
2023-08-26T11:07:20.758Z,21.90
2023-08-26T11:09:50.913Z,22.20
2023-08-26T11:12:29.055Z,22.00
2023-08-26T11:15:07.413Z,21.60
2023-08-26T11:17:49.883Z,21.30
2023-08-26T11:20:19.349Z,21.30
2023-08-26T11:22:46.902Z,21.50
2023-08-26T11:25:15.228Z,22.60
2023-08-26T11:27:42.550Z,23.40
2023-08-26T11:30:10.886Z,23.40
2023-08-26T11:32:38.989Z,23.50
2023-08-26T11:35:06.805Z,23.80
2023-08-26T11:37:42.684Z,24.00
2023-08-26T11:40:11.179Z,24.40
2023-08-26T11:42:38.305Z,24.50
2023-08-26T11:45:12.427Z,24.40
2023-08-26T11:47:42.847Z,24.40
2023-08-26T11:50:10.253Z,24.60
2023-08-26T11:52:39.419Z,25.20
2023-08-26T11:55:08.453Z,25.90
2023-08-26T11:57:40.466Z,25.30
2023-08-26T12:00:11.894Z,24.60
2023-08-26T12:02:38.999Z,23.50
2023-08-26T12:05:06.664Z,23.00
2023-08-26T12:07:34.024Z,23.60
2023-08-26T12:10:13.082Z,24.60
2023-08-26T12:12:40.931Z,25.30
2023-08-26T12:15:12.694Z,25.80
2023-08-26T12:17:48.036Z,25.90
2023-08-26T12:20:28.151Z,25.20
2023-08-26T12:23:05.933Z,25.60
2023-08-26T12:25:38.353Z,25.80
2023-08-26T12:28:13.469Z,26.00
2023-08-26T12:30:44.221Z,25.50
2023-08-26T12:33:23.611Z,24.70
2023-08-26T12:35:54.131Z,24.70
2023-08-26T12:38:21.631Z,25.40
2023-08-26T12:40:51.554Z,25.70
2023-08-26T12:43:21.960Z,26.00
2023-08-26T12:45:50.774Z,26.50
2023-08-26T12:48:33.533Z,26.10
2023-08-26T12:51:10.148Z,26.10
2023-08-26T12:53:38.018Z,26.00
2023-08-26T12:56:05.160Z,25.90
2023-08-26T12:58:32.036Z,25.90
2023-08-26T13:00:59.105Z,26.30
2023-08-26T13:03:26.076Z,26.40
2023-08-26T13:05:53.374Z,26.30
2023-08-26T13:08:20.283Z,25.70
2023-08-26T13:10:47.219Z,25.20
2023-08-26T13:13:14.201Z,24.90
2023-08-26T13:15:42.912Z,25.50
2023-08-26T13:18:10.423Z,26.20
2023-08-26T13:20:40.220Z,26.30
2023-08-26T13:23:08.402Z,26.10
2023-08-26T13:25:36.149Z,25.60
2023-08-26T13:28:03.405Z,25.70
2023-08-26T13:30:30.316Z,26.10
2023-08-26T13:32:57.323Z,25.00
2023-08-26T13:35:24.303Z,24.20
2023-08-26T13:37:51.377Z,24.20
2023-08-26T13:40:18.228Z,23.90
2023-08-26T13:42:45.170Z,23.30
2023-08-26T13:45:12.107Z,23.10
2023-08-26T13:47:39.082Z,23.50
2023-08-26T13:50:07.333Z,23.90
2023-08-26T13:52:34.272Z,24.40
2023-08-26T13:55:01.183Z,24.30
2023-08-26T13:57:28.781Z,23.90
2023-08-26T13:59:55.711Z,23.90
2023-08-26T14:02:22.709Z,23.80
2023-08-26T14:04:49.655Z,24.50
2023-08-26T14:07:16.608Z,24.80
2023-08-26T14:09:43.474Z,25.30
2023-08-26T14:12:10.834Z,26.10
2023-08-26T14:14:37.796Z,27.00
2023-08-26T14:17:04.910Z,26.80
2023-08-26T14:19:31.832Z,26.60
2023-08-26T14:22:00.435Z,26.00
2023-08-26T14:24:27.383Z,25.20
2023-08-26T14:26:54.272Z,24.70
2023-08-26T14:29:21.245Z,24.00
2023-08-26T14:31:48.173Z,23.40
2023-08-26T14:34:15.099Z,23.00
2023-08-26T14:36:42.020Z,22.70
2023-08-26T14:39:10.472Z,22.40
2023-08-26T14:41:37.524Z,21.90
2023-08-26T14:44:06.256Z,21.70
2023-08-26T14:46:33.955Z,21.30
2023-08-26T14:49:01.006Z,20.90
2023-08-26T14:51:27.966Z,20.80
2023-08-26T14:53:54.886Z,20.60
2023-08-26T14:56:21.837Z,20.40
2023-08-26T14:58:49.045Z,20.00
2023-08-26T15:01:15.955Z,19.60
2023-08-26T15:03:43.184Z,19.50
2023-08-26T15:06:10.141Z,19.50
2023-08-26T15:08:37.080Z,19.80
2023-08-26T15:11:05.043Z,19.80
2023-08-26T15:13:32.372Z,19.60
2023-08-26T15:15:59.284Z,19.50
2023-08-26T15:18:27.100Z,19.40
2023-08-26T15:20:55.109Z,19.60
2023-08-26T15:23:22.126Z,20.00
2023-08-26T15:25:49.484Z,21.20
2023-08-26T15:28:16.471Z,22.60
2023-08-26T15:30:52.187Z,23.10
2023-08-26T15:33:19.705Z,23.30
2023-08-26T15:35:54.783Z,23.50
2023-08-26T15:38:22.567Z,23.20
2023-08-26T15:40:58.319Z,23.00
2023-08-26T15:43:26.041Z,22.80
2023-08-26T15:45:53.491Z,22.70
2023-08-26T15:48:21.776Z,22.50
2023-08-26T15:50:49.237Z,22.30
2023-08-26T15:53:18.199Z,22.20
2023-08-26T15:55:45.913Z,22.00
2023-08-26T15:58:15.199Z,21.90
2023-08-26T16:00:43.149Z,21.50
2023-08-26T16:03:10.438Z,21.40
2023-08-26T16:05:39.052Z,21.60
2023-08-26T16:08:07.770Z,21.80
2023-08-26T16:10:35.281Z,22.10
2023-08-26T16:13:02.634Z,22.70
2023-08-26T16:15:29.689Z,23.70
2023-08-26T16:17:56.961Z,24.40
2023-08-26T16:20:24.013Z,24.50
2023-08-26T16:22:51.235Z,24.10
2023-08-26T16:25:18.581Z,23.60
2023-08-26T16:27:45.739Z,23.40
2023-08-26T16:30:14.006Z,23.30
2023-08-26T16:32:42.994Z,23.10
2023-08-26T16:35:10.604Z,22.80
2023-08-26T16:37:37.599Z,22.50
2023-08-26T16:40:04.952Z,22.10
2023-08-26T16:42:31.898Z,22.10
2023-08-26T16:44:58.821Z,21.80
2023-08-26T16:47:26.284Z,21.40
2023-08-26T16:49:53.321Z,21.60
2023-08-26T16:52:20.748Z,21.90
2023-08-26T16:54:49.757Z,22.10
2023-08-26T16:57:17.837Z,22.20
2023-08-26T16:59:45.039Z,22.30
2023-08-26T17:02:12.150Z,22.30
2023-08-26T17:04:39.100Z,22.30
2023-08-26T17:07:06.246Z,22.60
2023-08-26T17:09:33.761Z,22.70
2023-08-26T17:12:00.766Z,22.70
2023-08-26T17:14:27.875Z,23.00
2023-08-26T17:16:55.291Z,23.70
2023-08-26T17:19:22.648Z,24.40
2023-08-26T17:21:50.533Z,24.80
2023-08-26T17:24:17.429Z,24.80
2023-08-26T17:26:44.502Z,24.60
2023-08-26T17:29:11.544Z,24.20
2023-08-26T17:31:38.459Z,23.90
2023-08-26T17:34:05.414Z,23.70
2023-08-26T17:36:33.440Z,23.50
2023-08-26T17:39:00.472Z,23.40
2023-08-26T17:41:27.462Z,23.20
2023-08-26T17:43:54.486Z,22.70
2023-08-26T17:46:22.558Z,22.30
2023-08-26T17:48:50.475Z,22.10
2023-08-26T17:51:17.354Z,22.00
2023-08-26T17:53:44.510Z,21.90
2023-08-26T17:56:12.801Z,21.80
2023-08-26T17:58:40.126Z,21.80
2023-08-26T18:01:07.536Z,21.80
2023-08-26T18:03:34.550Z,21.80
2023-08-26T18:06:01.608Z,21.50
2023-08-26T18:08:28.641Z,21.40
2023-08-26T18:10:56.161Z,21.20
2023-08-26T18:13:23.065Z,20.90
2023-08-26T18:15:50.029Z,20.70
2023-08-26T18:18:17.067Z,20.60
2023-08-26T18:20:43.938Z,20.50
2023-08-26T18:23:10.878Z,20.40
2023-08-26T18:25:37.861Z,20.40
2023-08-26T18:28:05.023Z,20.30
2023-08-26T18:30:32.093Z,20.30
2023-08-26T18:32:59.632Z,20.30
2023-08-26T18:35:26.720Z,20.10
2023-08-26T18:37:53.686Z,20.10
2023-08-26T18:40:22.822Z,20.00
2023-08-26T18:42:51.204Z,19.90
2023-08-26T18:45:18.170Z,19.70
2023-08-26T18:47:45.154Z,19.70
2023-08-26T18:50:12.227Z,19.60
2023-08-26T18:52:39.165Z,19.60
2023-08-26T18:55:06.586Z,19.40
2023-08-26T18:57:34.067Z,19.50
2023-08-26T19:00:00.957Z,19.50
2023-08-26T19:02:28.028Z,19.50
2023-08-26T19:04:54.962Z,19.40
2023-08-26T19:07:21.878Z,19.40
2023-08-26T19:09:48.761Z,19.40
2023-08-26T19:12:15.718Z,19.30
2023-08-26T19:14:43.226Z,19.30
2023-08-26T19:17:10.188Z,19.10
2023-08-26T19:19:38.937Z,19.00
2023-08-26T19:22:06.166Z,19.00
2023-08-26T19:24:33.068Z,18.90
2023-08-26T19:27:00.332Z,18.90
2023-08-26T19:29:27.473Z,18.90
2023-08-26T19:31:54.679Z,19.00
2023-08-26T19:34:21.620Z,19.10
2023-08-26T19:36:48.556Z,19.10
2023-08-26T19:39:15.529Z,19.10
2023-08-26T19:41:42.476Z,19.10
2023-08-26T19:44:09.963Z,19.00
2023-08-26T19:46:37.040Z,19.00
2023-08-26T19:49:05.588Z,19.10
2023-08-26T19:51:33.000Z,19.20
2023-08-26T19:54:00.100Z,19.20
2023-08-26T19:56:27.107Z,19.30
2023-08-26T19:58:54.077Z,19.20
2023-08-26T20:01:21.273Z,19.10
2023-08-26T20:03:50.737Z,19.10
2023-08-26T20:06:17.944Z,19.10
2023-08-26T20:08:44.871Z,19.10
2023-08-26T20:11:11.752Z,19.20
2023-08-26T20:13:38.756Z,19.20
2023-08-26T20:16:05.864Z,19.20
2023-08-26T20:18:32.900Z,19.20
2023-08-26T20:21:00.762Z,19.30
2023-08-26T20:23:27.919Z,19.30
2023-08-26T20:26:01.226Z,19.30
2023-08-26T20:28:29.081Z,19.40
2023-08-26T20:31:02.121Z,19.40
2023-08-26T20:33:30.121Z,19.40
2023-08-26T20:35:59.630Z,19.40
2023-08-26T20:38:26.576Z,19.40
2023-08-26T20:40:53.446Z,19.30
2023-08-26T20:43:20.406Z,19.20
2023-08-26T20:45:51.098Z,19.10
2023-08-26T20:48:18.128Z,18.80
2023-08-26T20:50:45.084Z,18.60
2023-08-26T20:53:13.365Z,18.50
2023-08-26T20:55:40.212Z,18.60
2023-08-26T20:58:07.111Z,18.70
2023-08-26T21:00:34.249Z,18.80
2023-08-26T21:03:01.554Z,18.70
2023-08-26T21:05:30.930Z,18.50
2023-08-26T21:07:57.784Z,18.20
2023-08-26T21:10:25.641Z,18.20
2023-08-26T21:12:52.677Z,18.30
2023-08-26T21:15:19.740Z,18.40
2023-08-26T21:17:46.697Z,18.50
2023-08-26T21:20:13.644Z,18.50
2023-08-26T21:22:40.777Z,18.50
2023-08-26T21:25:08.482Z,18.50
2023-08-26T21:27:38.606Z,18.60
2023-08-26T21:30:06.059Z,18.70
2023-08-26T21:32:38.195Z,18.70
2023-08-26T21:35:05.725Z,18.70
2023-08-26T21:37:34.617Z,18.80
2023-08-26T21:40:01.504Z,18.70
2023-08-26T21:42:28.399Z,18.70
2023-08-26T21:44:55.416Z,18.60
2023-08-26T21:47:22.461Z,18.50
2023-08-26T21:49:51.351Z,18.50
2023-08-26T21:52:18.235Z,18.50
2023-08-26T21:54:45.093Z,18.50
2023-08-26T21:57:11.980Z,18.60
2023-08-26T21:59:38.924Z,18.60
2023-08-26T22:02:05.901Z,18.70
2023-08-26T22:04:32.829Z,18.60
2023-08-26T22:06:59.779Z,18.40
2023-08-26T22:09:26.891Z,18.20
2023-08-26T22:11:54.068Z,18.10
2023-08-26T22:14:21.122Z,18.20
2023-08-26T22:16:48.217Z,18.20
2023-08-26T22:19:15.190Z,18.10
2023-08-26T22:21:42.070Z,18.10
2023-08-26T22:24:09.023Z,18.10
2023-08-26T22:26:35.965Z,18.20
2023-08-26T22:29:02.906Z,18.20
2023-08-26T22:31:29.942Z,18.10
2023-08-26T22:33:56.858Z,18.10
2023-08-26T22:36:23.807Z,18.10
2023-08-26T22:38:50.681Z,18.00
2023-08-26T22:41:17.557Z,18.00
2023-08-26T22:43:52.075Z,18.10
2023-08-26T22:46:19.100Z,18.10
2023-08-26T22:48:45.949Z,18.20
2023-08-26T22:51:15.726Z,18.20
2023-08-26T22:53:42.638Z,18.20
2023-08-26T22:56:09.566Z,18.20
2023-08-26T22:58:36.555Z,18.30
2023-08-26T23:01:05.129Z,18.20
2023-08-26T23:03:32.326Z,18.20
2023-08-26T23:06:06.074Z,18.10
2023-08-26T23:08:33.002Z,18.00
2023-08-26T23:11:02.005Z,17.90
2023-08-26T23:13:28.885Z,17.90
2023-08-26T23:15:55.834Z,18.00
2023-08-26T23:18:23.123Z,17.90
2023-08-26T23:20:50.119Z,17.90
2023-08-26T23:23:17.117Z,17.90
2023-08-26T23:25:44.260Z,17.80
2023-08-26T23:28:11.427Z,17.70
2023-08-26T23:30:42.942Z,17.60
2023-08-26T23:33:13.439Z,17.40
2023-08-26T23:35:40.405Z,17.20
2023-08-26T23:38:07.858Z,17.10
2023-08-26T23:40:34.817Z,17.20
2023-08-26T23:43:01.983Z,17.40
2023-08-26T23:45:29.047Z,17.50
2023-08-26T23:47:56.055Z,17.60
2023-08-26T23:50:23.014Z,17.70
2023-08-26T23:52:50.155Z,17.70
2023-08-26T23:55:17.883Z,17.80
2023-08-26T23:57:44.806Z,17.80
